Time;durP1;ratioP1;P1;durP2;ratioP2;P2;SDS_P1;SDS_P2;PMS_P1;PMS_P2;Temp;Humidity;BMP_temperature;BMP_pressure;BME280_temperature;BME280_humidity;BME280_pressure;Samples;Min_cycle;Max_cycle;Signal;HPM_P1;HPM_P2
2023/12/10 00:01:19;;;;;;;54.40;10.40;;;10.80;99.90;;;10.94;96.45;99532.63;5094380;28;20044;-68
2023/12/10 00:03:48;;;;;;;42.33;9.30;;;10.80;99.90;;;10.96;96.43;99523.72;5094307;28;20068;-68
2023/12/10 00:06:16;;;;;;;48.17;10.25;;;10.80;99.90;;;10.93;96.79;99539.69;5094474;28;20036;-68
2023/12/10 00:08:45;;;;;;;49.95;9.68;;;10.80;99.90;;;10.89;96.33;99536.25;5094102;28;20067;-67
2023/12/10 00:11:13;;;;;;;51.13;10.07;;;10.70;99.90;;;10.86;96.30;99546.03;5094251;28;20070;-68
2023/12/10 00:13:42;;;;;;;44.35;9.45;;;10.70;99.90;;;10.86;96.45;99530.16;5094373;28;20485;-68
2023/12/10 00:16:15;;;;;;;49.70;9.55;;;10.70;99.90;;;10.65;96.26;99507.81;5094065;28;20044;-68
2023/12/10 00:18:44;;;;;;;52.47;10.02;;;10.70;99.90;;;10.90;95.82;99547.69;5094302;28;20040;-68
2023/12/10 00:21:14;;;;;;;47.03;9.27;;;10.70;99.90;;;10.88;95.69;99555.69;5093896;28;20099;-68
2023/12/10 00:23:43;;;;;;;47.80;10.07;;;10.70;99.90;;;10.82;94.64;99547.91;5094292;28;20511;-68
2023/12/10 00:26:11;;;;;;;49.45;11.05;;;10.70;99.90;;;10.85;94.37;99531.97;5094495;28;20106;-68
2023/12/10 00:28:40;;;;;;;43.58;8.95;;;10.70;99.90;;;10.88;93.85;99546.88;5094387;28;20040;-68
2023/12/10 00:31:09;;;;;;;53.42;10.25;;;10.70;99.90;;;10.90;93.81;99547.69;5075826;28;20054;-68
2023/12/10 00:33:39;;;;;;;45.13;9.30;;;10.70;99.90;;;10.87;93.15;99559.25;5093984;28;20047;-68
2023/12/10 00:36:09;;;;;;;48.28;9.93;;;10.70;99.90;;;10.93;92.50;99541.47;5094307;28;20040;-68
2023/12/10 00:38:38;;;;;;;46.70;9.40;;;10.80;99.90;;;10.87;91.75;99561.00;5075705;28;20401;-68
2023/12/10 00:41:10;;;;;;;45.63;9.85;;;10.70;99.90;;;10.97;91.91;99551.06;5093870;28;20043;-68
2023/12/10 00:43:40;;;;;;;42.92;10.02;;;10.80;99.90;;;11.00;91.37;99565.06;5075543;28;20489;-68
2023/12/10 00:46:09;;;;;;;44.05;9.45;;;10.80;99.90;;;11.06;91.60;99562.25;5093711;28;20444;-68
2023/12/10 00:48:40;;;;;;;41.10;9.05;;;10.90;99.90;;;11.01;90.19;99556.22;5093702;28;20051;-68
2023/12/10 00:51:18;;;;;;;39.33;8.65;;;10.90;99.90;;;10.99;89.62;99568.63;5093357;28;20359;-68
2023/12/10 00:53:47;;;;;;;47.55;8.95;;;10.90;99.90;;;11.04;88.83;99565.84;5093285;28;20059;-67
2023/12/10 00:56:16;;;;;;;40.35;9.85;;;10.90;99.90;;;11.19;88.15;99581.31;5093464;28;20106;-68
2023/12/10 00:58:44;;;;;;;44.25;8.85;;;11.00;99.90;;;11.10;87.29;99565.66;5093117;28;20489;-68
2023/12/10 01:01:13;;;;;;;40.25;9.02;;;11.00;99.90;;;11.07;86.71;99569.25;5075220;28;20044;-68
2023/12/10 01:03:43;;;;;;;41.17;8.63;;;10.90;99.90;;;11.14;86.34;99593.78;5093076;28;20458;-68
2023/12/10 01:06:11;;;;;;;42.40;9.23;;;11.00;99.90;;;11.15;86.07;99575.22;5093731;28;20044;-68
2023/12/10 01:08:40;;;;;;;44.50;9.43;;;11.00;99.90;;;11.23;85.46;99570.59;5093081;28;20051;-67
2023/12/10 01:11:08;;;;;;;39.40;9.13;;;11.10;99.90;;;11.17;84.99;99581.34;5075024;28;20443;-68
2023/12/10 01:13:37;;;;;;;47.55;10.25;;;11.00;99.90;;;11.31;84.88;99583.59;5092922;28;20397;-68
2023/12/10 01:16:07;;;;;;;39.40;8.85;;;11.10;99.90;;;11.26;84.79;99569.63;5093305;28;20052;-68
2023/12/10 01:18:37;;;;;;;41.03;9.13;;;11.10;99.90;;;11.28;84.90;99592.50;5092945;28;20098;-68
2023/12/10 01:21:09;;;;;;;43.97;8.73;;;11.10;99.90;;;11.31;84.74;99587.13;5074948;28;20113;-68
2023/12/10 01:23:39;;;;;;;44.50;8.43;;;11.20;99.90;;;11.21;84.83;99612.09;5093335;28;20055;-68
2023/12/10 01:26:12;;;;;;;50.72;10.68;;;11.20;99.90;;;11.24;84.78;99590.84;5092771;28;20089;-68
2023/12/10 01:28:41;;;;;;;46.15;10.27;;;11.10;99.90;;;10.62;84.65;99496.47;5093062;28;20074;-68
2023/12/10 01:31:09;;;;;;;51.10;10.48;;;11.10;99.90;;;11.38;84.56;99611.66;5093021;28;20043;-68
2023/12/10 01:33:38;;;;;;;45.72;8.68;;;11.20;99.90;;;11.28;84.24;99612.81;5091906;28;20048;-68
2023/12/10 01:36:09;;;;;;;43.50;10.20;;;11.10;99.90;;;11.33;84.57;99616.19;5092648;28;20043;-68
2023/12/10 01:38:38;;;;;;;42.92;9.38;;;11.10;99.90;;;11.22;84.14;99587.38;5092694;28;20044;-68
2023/12/10 01:41:06;;;;;;;46.85;10.75;;;11.10;99.90;;;11.23;84.26;99585.59;5092893;28;20391;-68
2023/12/10 01:43:35;;;;;;;50.30;10.23;;;11.10;99.90;;;11.27;83.76;99608.41;5092883;28;20085;-67
2023/12/10 01:46:04;;;;;;;46.58;9.32;;;11.10;99.90;;;11.28;83.86;99618.97;5092617;28;20048;-67
2023/12/10 01:48:33;;;;;;;44.38;10.05;;;11.10;99.90;;;11.26;84.06;99631.38;5092590;28;20044;-68
2023/12/10 01:51:03;;;;;;;44.63;9.82;;;11.10;99.90;;;11.29;84.22;99614.53;5092623;28;20044;-67
2023/12/10 01:53:32;;;;;;;48.15;9.40;;;11.10;99.90;;;11.28;84.12;99649.88;5092806;28;20040;-68
2023/12/10 01:56:01;;;;;;;47.88;10.07;;;11.10;99.90;;;11.32;83.66;99647.09;5092673;28;20137;-68
2023/12/10 01:58:30;;;;;;;44.60;9.48;;;11.10;99.90;;;11.34;83.82;99655.84;5092380;28;20447;-67
2023/12/10 02:00:58;;;;;;;52.22;9.52;;;11.20;99.90;;;11.38;83.81;99657.50;5092583;28;20044;-67
2023/12/10 02:03:28;;;;;;;42.63;9.45;;;11.20;99.90;;;11.22;83.60;99645.63;5092230;28;20036;-68
2023/12/10 02:05:57;;;;;;;46.05;11.02;;;11.20;99.90;;;11.37;83.13;99653.13;5092565;28;20439;-67
2023/12/10 02:08:28;;;;;;;;;;;11.20;99.90;;;11.35;83.39;99662.91;5092776;28;20036;-67
2023/12/10 02:10:58;;;;;;;50.85;9.40;;;11.20;99.90;;;11.28;83.05;99660.47;5074006;28;19920;-68
2023/12/10 02:13:27;;;;;;;46.83;10.10;;;11.20;99.90;;;11.34;83.09;99670.88;5073984;28;20097;-67
2023/12/10 02:15:55;;;;;;;47.42;9.90;;;11.20;99.90;;;11.44;82.92;99686.47;5092388;28;20437;-68
2023/12/10 02:18:24;;;;;;;58.42;11.00;;;11.20;99.90;;;11.24;83.07;99675.56;5092483;28;20491;-68
2023/12/10 02:20:54;;;;;;;46.45;10.48;;;11.20;99.90;;;11.39;83.73;99690.16;5092379;28;20040;-68
2023/12/10 02:23:34;;;;;;;46.83;9.82;;;11.20;99.90;;;11.25;83.51;99661.41;5074460;28;20561;-68
2023/12/10 02:26:05;;;;;;;54.55;10.07;;;11.20;99.90;;;11.38;83.80;99683.13;5092365;28;20417;-68
2023/12/10 02:28:33;;;;;;;;;;;11.20;99.90;;;11.29;83.67;99697.47;5092692;28;20119;-67
2023/12/10 02:31:03;;;;;;;54.83;9.77;;;11.10;99.90;;;11.34;83.42;99698.19;5091999;28;20380;-68
2023/12/10 02:33:31;;;;;;;52.10;10.93;;;11.10;99.90;;;11.26;83.40;99717.84;5091980;28;20055;-68
2023/12/10 02:36:00;;;;;;;54.60;9.75;;;11.10;99.90;;;11.34;82.97;99697.34;5092187;28;20051;-67
2023/12/10 02:38:29;;;;;;;47.03;10.30;;;11.10;99.90;;;11.35;82.35;99721.13;5092242;28;20069;-68
2023/12/10 02:40:57;;;;;;;46.42;9.65;;;11.20;99.90;;;11.42;82.40;99698.88;5092451;28;20040;-68
2023/12/10 02:43:27;;;;;;;54.00;10.75;;;11.30;99.90;;;11.48;82.10;99730.50;5091890;28;20139;-68
2023/12/10 02:45:56;;;;;;;55.17;9.30;;;11.30;99.90;;;11.41;81.68;99736.88;5094876;28;20427;-68
2023/12/10 02:48:24;;;;;;;46.13;9.45;;;11.30;99.90;;;11.40;81.62;99732.47;5096087;28;20515;-68
2023/12/10 02:50:54;;;;;;;43.25;9.20;;;11.30;99.90;;;11.25;81.53;99709.03;5095740;28;20535;-68
2023/12/10 02:53:23;;;;;;;49.22;9.27;;;11.20;99.90;;;11.28;81.63;99724.84;5095727;28;20040;-67
2023/12/10 02:55:52;;;;;;;57.97;11.30;;;11.20;99.90;;;11.39;81.48;99746.63;5095702;28;20040;-68
2023/12/10 02:58:20;;;;;;;52.42;11.27;;;11.20;99.90;;;11.35;81.55;99742.31;5096053;28;20047;-68
2023/12/10 03:00:51;;;;;;;47.05;10.75;;;11.30;99.90;;;11.46;81.39;99740.25;5095374;28;20594;-68
2023/12/10 03:03:20;;;;;;;41.60;9.63;;;11.30;99.90;;;11.43;81.45;99750.94;5095967;28;20040;-69
2023/12/10 03:05:48;;;;;;;47.15;9.93;;;11.30;99.90;;;11.40;81.46;99755.44;5095637;28;20032;-68
2023/12/10 03:08:17;;;;;;;44.55;9.45;;;11.20;99.90;;;11.37;81.44;99743.13;5095314;28;20036;-68
2023/12/10 03:10:45;;;;;;;46.53;9.80;;;11.30;99.90;;;11.23;81.88;99747.91;5095586;28;20055;-68
2023/12/10 03:13:14;;;;;;;44.95;9.35;;;11.10;99.90;;;11.39;81.62;99758.97;5095261;28;20051;-68
2023/12/10 03:15:42;;;;;;;54.10;11.65;;;11.20;99.90;;;11.43;81.57;99743.00;5095221;28;20444;-68
2023/12/10 03:18:12;;;;;;;49.10;10.07;;;11.30;99.90;;;11.50;81.23;99797.50;5095180;28;20051;-69
2023/12/10 03:20:41;;;;;;;53.03;10.50;;;11.30;99.90;;;11.55;81.46;99776.22;5095080;28;20432;-68
2023/12/10 03:23:10;;;;;;;49.95;10.27;;;11.40;99.90;;;11.53;81.14;99793.94;5077130;28;20056;-69
2023/12/10 03:25:38;;;;;;;44.08;9.23;;;11.40;99.90;;;11.56;81.21;99831.78;5094977;28;20086;-68
2023/12/10 03:28:06;;;;;;;53.72;10.98;;;11.40;99.90;;;11.53;80.84;99801.88;5094946;28;20123;-69
2023/12/10 03:30:35;;;;;;;44.58;9.73;;;11.40;99.90;;;11.48;80.83;99814.34;5095151;28;20040;-68
2023/12/10 03:33:04;;;;;;;44.60;8.55;;;11.30;99.90;;;11.41;80.86;99824.22;5076760;28;20146;-69
2023/12/10 03:35:33;;;;;;;47.00;10.15;;;11.30;99.90;;;11.49;80.24;99834.63;5094849;28;20044;-69
2023/12/10 03:38:02;;;;;;;49.50;10.40;;;11.30;99.90;;;11.54;80.30;99823.00;5094968;28;20044;-69
2023/12/10 03:40:30;;;;;;;45.20;10.07;;;11.40;99.90;;;11.57;80.05;99822.94;5095383;28;20447;-68
2023/12/10 03:42:59;;;;;;;43.85;9.13;;;11.40;99.90;;;11.47;79.85;99825.84;5094811;28;20048;-69
2023/12/10 03:45:28;;;;;;;47.85;10.25;;;11.30;99.90;;;11.56;79.71;99847.69;5094601;28;20431;-69
2023/12/10 03:47:56;;;;;;;40.90;9.65;;;11.40;99.90;;;11.46;79.57;99827.63;5094806;28;20044;-69
2023/12/10 03:50:25;;;;;;;42.85;9.35;;;11.40;99.90;;;11.48;79.53;99844.34;5094712;28;20397;-69
2023/12/10 03:52:54;;;;;;;42.15;10.13;;;11.30;99.90;;;11.50;79.45;99863.72;5094602;28;20127;-69
2023/12/10 03:55:23;;;;;;;54.58;10.38;;;11.40;99.90;;;11.55;79.68;99869.78;5094524;28;20044;-69
2023/12/10 03:57:51;;;;;;;53.05;10.60;;;11.40;99.90;;;11.53;79.90;99873.38;5093548;28;20108;-69
2023/12/10 04:00:20;;;;;;;43.92;9.65;;;11.40;99.90;;;11.54;79.64;99860.09;5094424;28;20097;-69
2023/12/10 04:02:49;;;;;;;39.92;10.10;;;11.40;99.90;;;11.52;79.68;99883.09;5094672;28;20040;-70
2023/12/10 04:05:17;;;;;;;41.00;9.45;;;11.40;99.90;;;11.61;79.65;99900.53;5094656;28;20543;-69
2023/12/10 04:07:48;;;;;;;42.22;8.88;;;11.40;99.90;;;11.17;79.86;99837.19;5094398;28;20048;-69
2023/12/10 04:10:18;;;;;;;45.80;9.55;;;11.40;99.90;;;11.55;80.28;99917.47;5094668;28;20451;-69
2023/12/10 04:12:47;;;;;;;42.42;8.90;;;11.40;99.90;;;11.59;80.18;99926.19;5076336;28;20044;-69
2023/12/10 04:15:16;;;;;;;45.28;9.73;;;11.40;99.90;;;11.56;80.17;99911.25;5094311;28;20043;-69
2023/12/10 04:17:44;;;;;;;45.85;10.43;;;11.40;99.90;;;11.49;80.17;99928.19;5094428;28;20067;-69
2023/12/10 04:20:13;;;;;;;47.95;11.57;;;11.40;99.90;;;11.43;80.20;99925.69;5094471;28;20170;-69
2023/12/10 04:22:41;;;;;;;43.30;9.23;;;11.30;99.90;;;11.47;80.46;99945.00;5094364;28;20052;-69
2023/12/10 04:25:10;;;;;;;43.35;9.18;;;11.30;99.90;;;11.51;80.73;99923.72;5094662;28;20055;-71
2023/12/10 04:27:40;;;;;;;50.92;9.73;;;11.40;99.90;;;11.53;80.50;99952.81;5094125;28;20047;-69
2023/12/10 04:30:10;;;;;;;49.13;9.52;;;11.40;99.90;;;11.47;80.56;99960.91;5094206;28;20036;-69
2023/12/10 04:32:38;;;;;;;46.30;9.40;;;11.30;99.90;;;11.42;80.68;99958.34;5094248;28;20036;-69
2023/12/10 04:35:08;;;;;;;48.92;10.70;;;11.30;99.90;;;11.44;80.35;99969.78;5076305;28;20040;-69
2023/12/10 04:37:36;;;;;;;42.45;9.70;;;11.30;99.90;;;11.42;80.46;99949.53;5093916;28;20043;-69
2023/12/10 04:40:07;;;;;;;41.67;9.27;;;11.30;99.90;;;11.45;80.88;99963.59;5094437;28;20048;-69
2023/12/10 04:42:35;;;;;;;39.38;9.43;;;11.30;99.90;;;11.46;81.15;99965.31;5093827;28;20047;-69
2023/12/10 04:45:07;;;;;;;50.63;9.85;;;11.40;99.90;;;11.43;80.92;99956.56;5093733;28;20038;-69
2023/12/10 04:47:36;;;;;;;43.47;9.20;;;11.30;99.90;;;11.45;80.83;99971.53;5093691;28;20047;-69
2023/12/10 04:50:05;;;;;;;51.65;10.15;;;11.30;99.90;;;11.50;80.84;99989.94;5093551;28;20063;-69
2023/12/10 04:52:34;;;;;;;48.97;9.88;;;11.30;99.90;;;11.49;81.05;99994.38;5093427;28;20043;-69
2023/12/10 04:55:03;;;;;;;40.70;8.90;;;11.30;99.90;;;11.45;80.31;99992.72;5075504;28;20134;-69
2023/12/10 04:57:31;;;;;;;43.08;9.27;;;11.30;99.90;;;11.40;80.75;99988.44;5093323;28;20044;-69
2023/12/10 05:00:00;;;;;;;42.33;9.43;;;11.30;99.90;;;11.44;81.04;99996.25;5093679;28;20477;-69
2023/12/10 05:02:30;;;;;;;48.95;8.98;;;11.30;99.90;;;11.42;80.82;99978.69;5093299;28;20119;-69
2023/12/10 05:04:58;;;;;;;41.05;9.43;;;11.30;99.90;;;11.19;80.14;99978.31;5093477;28;20568;-69
2023/12/10 05:07:27;;;;;;;41.28;8.68;;;11.20;99.90;;;11.23;80.65;100001.13;5093693;28;20052;-69
2023/12/10 05:09:56;;;;;;;49.20;8.95;;;11.20;99.90;;;11.29;80.84;100015.13;5093140;28;20051;-69
2023/12/10 05:12:24;;;;;;;39.10;9.68;;;11.20;99.90;;;11.33;80.82;100008.84;5093179;28;20127;-69
2023/12/10 05:14:53;;;;;;;46.40;9.80;;;11.20;99.90;;;11.32;80.98;100011.53;5092987;28;20093;-69
2023/12/10 05:17:21;;;;;;;45.60;9.40;;;11.10;99.90;;;11.23;80.66;100020.53;5093169;28;20062;-69
2023/12/10 05:19:51;;;;;;;39.92;8.90;;;11.10;99.90;;;11.24;81.23;100026.72;5093552;28;20095;-69
2023/12/10 05:22:21;;;;;;;48.17;9.00;;;11.10;99.90;;;11.30;81.42;100043.34;5093207;28;20122;-69
2023/12/10 05:24:52;;;;;;;43.35;9.30;;;11.20;99.90;;;11.25;81.55;100034.63;5093195;28;20036;-69
2023/12/10 05:27:21;;;;;;;42.97;9.63;;;11.10;99.90;;;11.27;81.62;100043.38;5093364;28;20067;-69
2023/12/10 05:29:50;;;;;;;45.67;10.40;;;11.20;99.90;;;11.15;81.31;100021.63;5092982;28;20068;-69
2023/12/10 05:32:18;;;;;;;52.72;9.30;;;11.10;99.90;;;11.26;81.53;100044.31;5092732;28;20135;-69
2023/12/10 05:34:46;;;;;;;42.83;9.70;;;11.10;99.90;;;11.25;81.47;100050.50;5092637;28;20150;-69
2023/12/10 05:37:20;;;;;;;46.00;9.23;;;11.10;99.90;;;11.31;81.35;100070.66;5074670;28;20501;-69
2023/12/10 05:39:48;;;;;;;46.15;9.73;;;11.20;99.90;;;11.24;81.64;100077.00;5092658;28;20074;-69
2023/12/10 05:42:17;;;;;;;52.75;10.48;;;11.10;99.90;;;11.22;81.18;100084.97;5074551;28;20126;-69
2023/12/10 05:44:46;;;;;;;52.67;10.45;;;11.10;99.90;;;11.24;81.17;100085.81;5092688;28;20071;-69
2023/12/10 05:47:14;;;;;;;43.78;9.55;;;11.10;99.90;;;11.18;81.17;100072.69;5092796;28;20113;-69
2023/12/10 05:49:43;;;;;;;39.47;8.73;;;11.10;99.90;;;11.20;81.00;100096.50;5092494;28;20184;-70
2023/12/10 05:52:11;;;;;;;38.85;8.60;;;11.10;99.90;;;11.10;80.77;100094.91;5092389;28;20036;-69
2023/12/10 05:54:41;;;;;;;39.85;8.38;;;11.00;99.90;;;11.22;80.57;100094.69;5092337;28;20056;-69
2023/12/10 05:57:09;;;;;;;47.70;8.73;;;11.10;99.90;;;11.18;81.10;100104.47;5092641;28;20048;-69
2023/12/10 05:59:38;;;;;;;57.03;10.15;;;11.10;99.90;;;11.23;81.26;100107.88;5092488;28;20369;-69
2023/12/10 06:02:07;;;;;;;42.72;8.48;;;11.10;99.90;;;11.16;81.08;100111.56;5092207;28;20058;-69
2023/12/10 06:04:35;;;;;;;41.65;9.07;;;11.10;99.90;;;11.25;80.95;100132.56;5092429;28;20087;-69
2023/12/10 06:07:04;;;;;;;44.80;9.88;;;11.10;99.90;;;11.25;80.81;100129.03;5092123;28;20043;-69
2023/12/10 06:09:33;;;;;;;43.50;8.95;;;11.10;99.90;;;11.19;80.85;100148.53;5091908;28;20080;-68
2023/12/10 06:12:03;;;;;;;41.78;9.88;;;11.10;99.90;;;11.23;80.82;100139.66;5092372;28;20063;-69
2023/12/10 06:14:31;;;;;;;36.80;8.98;;;11.10;99.90;;;11.28;80.57;100160.75;5092294;28;20124;-69
2023/12/10 06:17:00;;;;;;;42.20;9.85;;;11.10;99.90;;;11.26;80.24;100162.56;5092128;28;20455;-69
2023/12/10 06:19:29;;;;;;;38.10;8.75;;;11.10;99.90;;;11.24;80.12;100154.66;5093390;28;20051;-69
2023/12/10 06:21:57;;;;;;;44.38;9.20;;;11.10;99.90;;;11.27;80.31;100175.75;5098948;28;20043;-69
2023/12/10 06:24:27;;;;;;;39.85;8.40;;;11.10;99.90;;;11.27;80.47;100172.22;5098739;28;20489;-69
2023/12/10 06:26:56;;;;;;;37.67;9.00;;;11.10;99.90;;;11.21;80.62;100183.81;5080757;28;20044;-69
2023/12/10 06:29:26;;;;;;;37.38;9.45;;;11.10;99.90;;;11.24;80.32;100189.06;5098649;28;20040;-69
2023/12/10 06:31:55;;;;;;;45.30;9.27;;;11.10;99.90;;;11.16;80.59;100187.44;5098640;28;20501;-69
2023/12/10 06:34:23;;;;;;;39.05;9.15;;;11.10;99.90;;;11.22;80.56;100188.22;5098900;28;20355;-69
2023/12/10 06:36:52;;;;;;;34.63;8.57;;;11.10;99.90;;;11.19;81.17;100208.56;5098583;28;20043;-69
2023/12/10 06:39:20;;;;;;;39.03;8.82;;;11.10;99.90;;;11.24;80.96;100214.66;5098920;28;20040;-69
2023/12/10 06:41:49;;;;;;;38.53;9.35;;;11.10;99.90;;;11.18;80.91;100218.28;5098599;28;20055;-69
2023/12/10 06:44:21;;;;;;;42.85;9.23;;;11.10;99.90;;;11.16;81.08;100228.03;5098471;28;20071;-69
2023/12/10 06:46:52;;;;;;;30.85;8.10;;;11.00;99.90;;;11.18;81.12;100214.75;5080575;28;20071;-69
2023/12/10 06:49:20;;;;;;;39.95;9.68;;;11.10;99.90;;;11.16;81.05;100211.25;5098714;28;20044;-69
2023/12/10 06:51:49;;;;;;;54.22;9.20;;;11.00;99.90;;;11.20;81.08;100231.47;5098498;28;20039;-69
2023/12/10 06:54:17;;;;;;;44.00;8.63;;;11.10;99.90;;;11.22;80.83;100222.63;5098855;28;20051;-69
2023/12/10 06:56:46;;;;;;;40.83;8.40;;;11.10;99.90;;;11.13;80.91;100240.44;5080625;28;20052;-69
2023/12/10 06:59:15;;;;;;;33.83;8.30;;;11.00;99.90;;;11.12;81.49;100239.56;5098752;28;20040;-69
2023/12/10 07:01:44;;;;;;;37.63;8.45;;;11.00;99.90;;;11.17;81.48;100256.22;5098500;28;20044;-69
2023/12/10 07:04:14;;;;;;;38.38;7.70;;;11.00;99.90;;;11.23;81.63;100249.94;5098753;28;20040;-69
2023/12/10 07:06:43;;;;;;;44.55;10.15;;;11.10;99.90;;;11.19;81.87;100264.16;5098507;28;20500;-69
2023/12/10 07:09:12;;;;;;;39.10;8.70;;;11.10;99.90;;;11.20;82.06;100250.88;5098567;28;20593;-68
2023/12/10 07:11:41;;;;;;;42.17;9.07;;;11.10;99.90;;;11.19;82.05;100253.56;5098764;28;20043;-69
2023/12/10 07:14:09;;;;;;;41.90;8.75;;;11.00;99.90;;;11.16;82.19;100256.25;5098456;28;20040;-69
2023/12/10 07:16:38;;;;;;;42.63;9.00;;;11.00;99.90;;;11.11;82.33;100253.66;5098404;28;20048;-69
2023/12/10 07:19:06;;;;;;;39.28;8.25;;;11.00;99.90;;;11.06;82.83;100268.75;5098690;28;20048;-69
2023/12/10 07:21:36;;;;;;;41.53;8.73;;;10.90;99.90;;;11.13;82.63;100290.72;5098397;28;20040;-69
2023/12/10 07:24:06;;;;;;;40.67;9.23;;;11.00;99.90;;;11.11;82.68;100293.38;5099626;28;20047;-69
2023/12/10 07:26:34;;;;;;;43.05;8.82;;;10.90;99.90;;;11.09;82.77;100295.16;5098895;28;20119;-69
2023/12/10 07:29:02;;;;;;;35.45;8.10;;;10.90;99.90;;;11.01;82.88;100291.78;5098864;28;20044;-69
2023/12/10 07:31:31;;;;;;;39.92;8.38;;;10.90;99.90;;;11.02;82.78;100309.41;5095448;28;20044;-69
2023/12/10 07:33:59;;;;;;;37.17;8.43;;;10.90;99.90;;;10.98;82.62;100288.28;5094996;28;20099;-69
2023/12/10 07:36:28;;;;;;;33.08;8.00;;;10.90;99.90;;;11.18;82.83;100329.44;5095176;28;20051;-69
2023/12/10 07:38:58;;;;;;;36.15;7.82;;;11.00;99.90;;;11.11;82.70;100330.41;5094657;28;20116;-69
2023/12/10 07:41:26;;;;;;;40.93;9.27;;;11.00;99.90;;;11.11;82.68;100330.41;5094879;28;20105;-69
2023/12/10 07:43:55;;;;;;;45.67;9.52;;;11.00;99.90;;;11.03;82.59;100331.47;5076816;28;20290;-69
2023/12/10 07:46:23;;;;;;;41.08;9.35;;;11.00;99.90;;;11.13;82.94;100338.38;5076785;28;20451;-69
2023/12/10 07:48:52;;;;;;;33.95;8.15;;;11.00;99.90;;;11.16;82.63;100344.47;5076605;28;20058;-69
2023/12/10 07:51:20;;;;;;;37.40;8.25;;;11.00;99.90;;;11.04;82.73;100349.06;5094833;28;20040;-69
2023/12/10 07:53:49;;;;;;;37.95;8.45;;;10.90;99.90;;;11.09;82.75;100340.16;5095098;28;20047;-69
2023/12/10 07:56:19;;;;;;;39.50;8.73;;;10.90;99.90;;;11.04;82.59;100346.41;5076359;28;20159;-69
2023/12/10 07:58:47;;;;;;;52.83;9.10;;;10.90;99.90;;;11.08;82.67;100356.94;5094414;28;20040;-70
2023/12/10 08:01:16;;;;;;;38.10;9.13;;;10.90;99.90;;;11.10;82.49;100346.34;5094426;28;20285;-68
2023/12/10 08:03:45;;;;;;;40.70;9.00;;;11.00;99.90;;;11.13;82.37;100352.44;5094351;28;20143;-68
2023/12/10 08:06:14;;;;;;;42.40;9.90;;;11.00;99.90;;;11.01;83.17;100359.72;5094496;28;20036;-68
2023/12/10 08:08:42;;;;;;;42.83;8.20;;;10.90;99.90;;;11.11;82.77;100356.03;5094248;28;20564;-67
2023/12/10 08:11:11;;;;;;;33.35;8.80;;;11.00;99.90;;;11.14;82.59;100362.16;5094700;28;20105;-68
2023/12/10 08:13:41;;;;;;;43.33;8.88;;;11.00;99.90;;;11.18;82.84;100363.88;5094057;28;20121;-66
2023/12/10 08:16:11;;;;;;;38.25;7.32;;;11.00;99.90;;;11.16;82.85;100368.31;5094412;28;20048;-65
2023/12/10 08:18:40;;;;;;;40.70;9.18;;;11.00;99.90;;;11.09;83.06;100368.41;5076117;28;20465;-68
2023/12/10 08:21:09;;;;;;;43.33;8.32;;;11.00;99.90;;;11.07;82.90;100375.50;5093881;28;20107;-69
2023/12/10 08:23:38;;;;;;;34.75;7.75;;;10.90;99.90;;;11.25;82.90;100373.44;5094060;28;20043;-68
2023/12/10 08:26:07;;;;;;;39.20;8.02;;;11.10;99.90;;;11.12;82.73;100379.81;5093929;28;20123;-69
2023/12/10 08:28:36;;;;;;;35.17;8.63;;;11.00;99.90;;;11.15;82.79;100378.91;5093922;28;20067;-67
2023/12/10 08:31:06;;;;;;;34.55;8.35;;;11.00;99.90;;;11.28;83.08;100385.78;5093909;28;20044;-70
2023/12/10 08:33:35;;;;;;;31.40;8.15;;;11.10;99.90;;;11.22;82.79;100376.16;5093828;28;20493;-70
2023/12/10 08:36:04;;;;;;;36.15;8.07;;;11.10;99.90;;;11.18;82.90;100371.81;5093707;28;20131;-72
2023/12/10 08:38:32;;;;;;;43.22;9.23;;;11.10;99.90;;;11.20;82.85;100367.38;5093784;28;20552;-69
2023/12/10 08:41:01;;;;;;;40.42;8.27;;;11.20;99.90;;;11.35;82.79;100379.47;5093860;28;20036;-72
2023/12/10 08:43:30;;;;;;;35.65;8.52;;;11.20;99.90;;;11.28;83.05;100385.78;5075212;28;20489;-71
2023/12/10 08:45:59;;;;;;;34.72;8.05;;;11.20;99.90;;;11.22;82.68;100369.97;5093983;28;20127;-71
2023/12/10 08:48:30;;;;;;;36.80;8.38;;;11.20;99.90;;;11.33;83.03;100395.41;5094082;28;20044;-72
2023/12/10 08:50:59;;;;;;;37.83;8.77;;;11.20;99.90;;;11.36;83.28;100405.91;5093786;28;20048;-70
2023/12/10 08:53:27;;;;;;;40.35;8.63;;;11.20;99.90;;;11.36;83.42;100391.84;5075573;28;20128;-71
2023/12/10 08:55:56;;;;;;;41.03;8.48;;;11.20;99.90;;;11.35;83.03;100408.59;5075249;28;20074;-71
2023/12/10 08:58:25;;;;;;;37.88;8.23;;;11.20;99.90;;;11.55;82.90;100418.00;5093187;28;20036;-70
2023/12/10 09:00:54;;;;;;;34.60;8.20;;;11.40;99.90;;;11.67;82.54;100420.47;5075274;28;20079;-72
2023/12/10 09:03:22;;;;;;;33.40;8.15;;;11.50;99.90;;;11.94;81.44;100420.94;5093283;28;20446;-67
2023/12/10 09:05:53;;;;;;;38.00;7.95;;;11.70;99.90;;;12.21;80.19;100412.50;5093041;28;20040;-71
2023/12/10 09:08:21;;;;;;;34.88;8.23;;;12.00;99.90;;;12.43;79.28;100413.81;5075544;28;20040;-71
2023/12/10 09:10:50;;;;;;;36.15;8.20;;;12.30;99.90;;;12.68;78.28;100431.88;5093926;28;20060;-70
2023/12/10 09:13:19;;;;;;;34.53;8.05;;;12.50;99.90;;;12.71;77.14;100436.28;5093950;28;20040;-72
2023/12/10 09:15:47;;;;;;;38.35;8.43;;;12.60;99.90;;;12.58;77.35;100435.63;5093829;28;20075;-69
2023/12/10 09:18:16;;;;;;;35.45;8.85;;;12.50;99.90;;;12.64;77.54;100438.16;5093122;28;20036;-70
2023/12/10 09:20:44;;;;;;;33.00;8.48;;;12.50;99.90;;;12.63;77.55;100439.06;5093107;28;20127;-72
2023/12/10 09:23:14;;;;;;;38.78;8.27;;;12.50;99.90;;;12.75;77.33;100431.75;5093301;28;20052;-71
2023/12/10 09:25:43;;;;;;;37.03;7.93;;;12.50;99.90;;;12.92;76.89;100438.47;5075085;28;20043;-68
2023/12/10 09:28:12;;;;;;;34.20;7.65;;;12.70;99.90;;;13.17;76.58;100446.81;5092995;28;20044;-68
2023/12/10 09:30:40;;;;;;;29.85;7.45;;;12.90;99.90;;;13.35;75.34;100438.47;5093429;28;20126;-69
2023/12/10 09:33:09;;;;;;;35.17;7.97;;;13.10;99.90;;;13.62;74.76;100450.22;5093529;28;20119;-68
2023/12/10 09:35:39;;;;;;;38.65;8.65;;;13.40;99.90;;;13.84;73.54;100430.22;5093102;28;20051;-70
2023/12/10 09:38:07;;;;;;;35.30;7.97;;;13.70;99.90;;;14.17;72.93;100463.91;5092776;28;20119;-70
2023/12/10 09:40:38;;;;;;;36.30;8.88;;;13.90;99.90;;;14.31;70.88;100468.00;5074242;28;20052;-70
2023/12/10 09:43:06;;;;;;;30.42;7.25;;;14.20;99.90;;;14.46;71.07;100472.03;5092731;28;20441;-71
2023/12/10 09:45:35;;;;;;;27.77;7.28;;;14.30;99.90;;;14.51;70.48;100469.25;5092444;28;20127;-70
2023/12/10 09:48:05;;;;;;;30.58;7.85;;;14.30;99.90;;;14.70;69.20;100471.38;5074519;28;20075;-70
2023/12/10 09:50:38;;;;;;;27.02;6.97;;;14.50;99.90;;;14.79;68.60;100460.47;5092739;28;20434;-70
2023/12/10 09:53:08;;;;;;;35.20;7.68;;;14.60;99.90;;;14.84;67.49;100471.88;5092446;28;20071;-71
2023/12/10 09:55:38;;;;;;;25.55;7.00;;;14.70;99.90;;;14.76;67.41;100465.91;5073899;28;20052;-70
2023/12/10 09:58:06;;;;;;;25.65;7.45;;;14.70;99.90;;;14.83;66.80;100472.78;5074389;28;20051;-70
2023/12/10 10:00:35;;;;;;;31.73;7.45;;;14.70;99.90;;;14.80;66.58;100475.56;5092442;28;20051;-70
2023/12/10 10:03:05;;;;;;;32.17;7.40;;;14.60;99.90;;;14.86;65.88;100475.38;5092417;28;20043;-70
2023/12/10 10:05:34;;;;;;;36.22;7.78;;;14.70;99.90;;;14.53;67.10;100476.31;5074330;28;20048;-70
2023/12/10 10:08:03;;;;;;;26.52;6.78;;;14.50;99.90;;;14.44;67.45;100477.41;5092754;28;20075;-71
2023/12/10 10:10:32;;;;;;;27.67;6.97;;;14.30;99.90;;;14.06;68.29;100466.84;5074317;28;20059;-70
2023/12/10 10:13:02;;;;;;;30.95;7.20;;;14.00;99.90;;;13.96;69.02;100470.66;5092758;28;20048;-69
2023/12/10 10:15:31;;;;;;;;;;;13.90;99.90;;;13.98;69.83;100474.13;5092539;28;20552;-69